Aviation Digital Data Service (ADDS)

Output produced by METARs form (0244 UTC 24 July 2017)
found at http://www.aviationweather.gov/adds/metars/
 
TAF MDST 232200Z 2400/2500 13010KT 9999 FEW022CB BKN025 SCT300 
     PROB30 2400/2406 6000 TSRA FEW016CB BKN018 SCT300 
     BECMG 2404/2406 11007KT
       
TAF MDPP 232200Z 2400/2500 06015KT 9999 FEW018CB SCT020 
     PROB30 2400/2406 6000 TSRA FEW014CB BKN016 
     BECMG 2401/2403 12010KT
       
TAF MDLR 232200Z 2400/2500 09012KT 9999 FEW016CB SCT018 SCT070 TEMP0 2401/2407 7000 -TSRA FEW012CB BKN014 BKN070 
     BECMG 2403/2405 00000KT
       
TAF MDSD 232200Z 2400/2500 03006KT 9999 FEW016CB BKN018 
     PROB30 2400/2405 7000 -TSRA FEW014CB BKN016
       
TAF MDBH 232200Z 2400/2500 13010KT 9999 FEW018CB SCT020 BKN090 
     PROB40 2402/2406 8000 -TSRA FEW016CB SCT018 BKN080 
     BECMG 2406/2408 00000KT
       
TAF MDPC 232200Z 2400/2500 07006KT 9999 FEW024 
     PROB30 2402/2407 8000 -VCSH SCT018 SCT070 
     BECMG 2404/2406 00000KT